createdAt,value
2019-03-23T00:01:07.874Z,100579.34
2019-03-23T00:03:36.269Z,100581.52
2019-03-23T00:06:04.739Z,100579.22
2019-03-23T00:08:33.146Z,100581.14
2019-03-23T00:11:01.533Z,100584.91
2019-03-23T00:13:29.997Z,100586.05
2019-03-23T00:15:58.418Z,100585.63
2019-03-23T00:18:26.814Z,100584.53
2019-03-23T00:20:55.209Z,100588.49
2019-03-23T00:23:23.630Z,100588.49
2019-03-23T00:25:52.041Z,100589.80
2019-03-23T00:28:20.431Z,100584.08
2019-03-23T00:30:48.834Z,100591.89
2019-03-23T00:33:17.248Z,100581.62
2019-03-23T00:35:45.645Z,100582.00
2019-03-23T00:38:14.083Z,100583.15
2019-03-23T00:40:42.504Z,100582.59
2019-03-23T00:43:10.893Z,100588.06
2019-03-23T00:45:39.291Z,100588.66
2019-03-23T00:48:07.702Z,100593.72
2019-03-23T00:50:36.104Z,100589.26
2019-03-23T00:53:04.597Z,100587.60
2019-03-23T00:55:32.991Z,100599.50
2019-03-23T00:58:01.387Z,100601.35
2019-03-23T01:00:29.800Z,100601.58
2019-03-23T01:02:58.190Z,100604.50
2019-03-23T01:05:26.614Z,100611.09
2019-03-23T01:07:55.005Z,100604.02
2019-03-23T01:10:23.405Z,100604.38
2019-03-23T01:12:51.821Z,100603.47
2019-03-23T01:15:20.217Z,100600.54
2019-03-23T01:17:48.608Z,100598.65
2019-03-23T01:20:17.089Z,100605.59
2019-03-23T01:22:45.480Z,100599.98
2019-03-23T01:25:13.885Z,100601.78
2019-03-23T01:27:42.294Z,100595.06
2019-03-23T01:30:13.351Z,100602.80
2019-03-23T01:32:41.748Z,100600.42
2019-03-23T01:35:10.579Z,100600.02
2019-03-23T01:37:38.999Z,100605.23
2019-03-23T01:40:08.336Z,100605.23
2019-03-23T01:42:36.817Z,100601.64
2019-03-23T01:45:08.097Z,100599.04
2019-03-23T01:47:36.492Z,100605.06
2019-03-23T01:50:09.757Z,100600.69
2019-03-23T01:52:38.154Z,100599.55
2019-03-23T01:55:07.667Z,100595.59
2019-03-23T01:57:36.058Z,100594.10
2019-03-23T02:00:07.263Z,100582.97
2019-03-23T02:02:35.854Z,100586.90
2019-03-23T02:05:06.689Z,100590.58
2019-03-23T02:07:35.199Z,100599.07
2019-03-23T02:10:05.772Z,100596.00
2019-03-23T02:12:34.165Z,100596.48
2019-03-23T02:15:02.583Z,100596.32
2019-03-23T02:17:30.978Z,100595.67
2019-03-23T02:19:59.385Z,100592.11
2019-03-23T02:22:28.085Z,100589.99
2019-03-23T02:24:56.485Z,100596.72
2019-03-23T02:27:24.901Z,100600.97
2019-03-23T02:29:53.290Z,100601.45
2019-03-23T02:32:21.685Z,100600.63
2019-03-23T02:34:50.108Z,100606.26
2019-03-23T02:37:27.762Z,100611.94
2019-03-23T02:39:48.678Z,100621.13
2019-03-23T02:42:17.076Z,100618.58
2019-03-23T02:44:45.473Z,100616.58
2019-03-23T02:47:13.879Z,100612.50
2019-03-23T02:49:42.266Z,100616.70
2019-03-23T02:52:10.659Z,100611.27
2019-03-23T02:54:39.069Z,100612.41
2019-03-23T02:57:07.471Z,100606.16
2019-03-23T02:59:36.036Z,100607.05
2019-03-23T03:02:04.501Z,100602.02
2019-03-23T03:04:32.910Z,100614.06
2019-03-23T03:07:01.490Z,100612.72
2019-03-23T03:09:29.895Z,100608.17
2019-03-23T03:11:58.304Z,100607.38
2019-03-23T03:14:26.704Z,100606.37
2019-03-23T03:16:55.135Z,100607.66
2019-03-23T03:19:23.532Z,100610.38
2019-03-23T03:21:51.937Z,100612.98
2019-03-23T03:24:20.341Z,100621.12
2019-03-23T03:26:48.746Z,100617.41
2019-03-23T03:29:17.189Z,100606.39
2019-03-23T03:31:45.561Z,100601.53
2019-03-23T03:34:13.955Z,100607.73
2019-03-23T03:36:42.382Z,100605.61
2019-03-23T03:39:11.080Z,100604.92
2019-03-23T03:41:39.502Z,100604.52
2019-03-23T03:44:07.962Z,100607.67
2019-03-23T03:46:36.436Z,100604.25
2019-03-23T03:49:12.444Z,100607.66
2019-03-23T03:51:35.055Z,100602.91
2019-03-23T03:54:03.532Z,100601.44
2019-03-23T03:56:31.925Z,100609.58
2019-03-23T03:59:00.318Z,100610.19
2019-03-23T04:01:28.743Z,100611.81
2019-03-23T04:03:57.139Z,100610.91
2019-03-23T04:06:25.566Z,100605.14
2019-03-23T04:08:53.972Z,100602.91
2019-03-23T04:11:22.388Z,100606.39
2019-03-23T04:13:50.790Z,100601.83
2019-03-23T04:16:19.197Z,100601.70
2019-03-23T04:18:47.600Z,100601.05
2019-03-23T04:21:15.992Z,100605.38
2019-03-23T04:23:44.390Z,100599.52
2019-03-23T04:26:12.795Z,100603.28
2019-03-23T04:28:41.188Z,100605.36
2019-03-23T04:31:09.618Z,100617.68
2019-03-23T04:33:38.013Z,100612.83
2019-03-23T04:36:06.400Z,100613.43
2019-03-23T04:38:34.817Z,100619.17
2019-03-23T04:41:03.218Z,100615.97
2019-03-23T04:43:31.636Z,100621.38
2019-03-23T04:46:00.033Z,100623.61
2019-03-23T04:48:28.431Z,100620.29
2019-03-23T04:50:56.850Z,100620.02
2019-03-23T04:53:25.250Z,100622.28
2019-03-23T04:55:53.677Z,100621.98
2019-03-23T04:58:22.078Z,100626.55
2019-03-23T05:00:50.474Z,100620.89
2019-03-23T05:03:18.886Z,100622.67
2019-03-23T05:05:47.286Z,100632.70
2019-03-23T05:08:15.699Z,100634.97
2019-03-23T05:10:44.089Z,100641.63
2019-03-23T05:13:12.479Z,100646.16
2019-03-23T05:15:40.896Z,100648.05
2019-03-23T05:18:09.300Z,100648.28
2019-03-23T05:20:37.720Z,100646.31
2019-03-23T05:23:06.111Z,100649.94
2019-03-23T05:25:34.517Z,100653.72
2019-03-23T05:28:02.955Z,100648.67
2019-03-23T05:30:31.340Z,100649.30
2019-03-23T05:32:59.742Z,100660.33
2019-03-23T05:35:28.174Z,100654.27
2019-03-23T05:37:56.565Z,100656.19
2019-03-23T05:40:24.957Z,100657.56
2019-03-23T05:42:53.369Z,100658.86
2019-03-23T05:45:21.784Z,100655.24
2019-03-23T05:47:50.206Z,100655.58
2019-03-23T05:50:18.602Z,100651.51
2019-03-23T05:52:46.997Z,100658.43
2019-03-23T05:55:15.420Z,100651.95
2019-03-23T05:57:43.821Z,100656.98
2019-03-23T06:00:14.321Z,100659.06
2019-03-23T06:02:42.727Z,100663.23
2019-03-23T06:05:12.066Z,100670.02
2019-03-23T06:07:40.719Z,100671.43
2019-03-23T06:10:09.291Z,100666.23
2019-03-23T06:12:37.690Z,100660.45
2019-03-23T06:15:07.646Z,100666.50
2019-03-23T06:17:36.037Z,100665.41
2019-03-23T06:20:08.244Z,100665.83
2019-03-23T06:22:36.777Z,100670.28
2019-03-23T06:25:08.895Z,100676.98
2019-03-23T06:27:37.306Z,100680.91
2019-03-23T06:30:08.465Z,100675.06
2019-03-23T06:32:36.886Z,100683.44
2019-03-23T06:35:06.728Z,100684.03
2019-03-23T06:37:35.166Z,100675.71
2019-03-23T06:40:05.795Z,100680.13
2019-03-23T06:42:34.201Z,100681.25
2019-03-23T06:45:02.622Z,100688.56
2019-03-23T06:47:31.031Z,100692.62
2019-03-23T06:49:59.445Z,100693.16
2019-03-23T06:52:27.854Z,100688.09
2019-03-23T06:54:56.266Z,100686.44
2019-03-23T06:57:24.671Z,100688.55
2019-03-23T06:59:53.063Z,100689.30
2019-03-23T07:02:21.496Z,100689.02
2019-03-23T07:04:49.888Z,100681.43
2019-03-23T07:07:18.294Z,100689.75
2019-03-23T07:09:46.789Z,100689.60
2019-03-23T07:12:15.190Z,100684.37
2019-03-23T07:14:43.606Z,100686.69
2019-03-23T07:17:12.026Z,100683.97
2019-03-23T07:19:40.422Z,100689.91
2019-03-23T07:22:08.821Z,100689.27
2019-03-23T07:24:37.590Z,100687.01
2019-03-23T07:27:05.993Z,100690.78
2019-03-23T07:29:34.388Z,100693.52
2019-03-23T07:32:05.973Z,100681.37
2019-03-23T07:34:32.930Z,100682.67
2019-03-23T07:37:01.516Z,100683.31
2019-03-23T07:39:30.597Z,100687.12
2019-03-23T07:41:59.101Z,100682.60
2019-03-23T07:44:27.510Z,100683.41
2019-03-23T07:46:55.912Z,100677.77
2019-03-23T07:49:24.337Z,100681.94
2019-03-23T07:51:53.005Z,100686.64
2019-03-23T07:54:21.404Z,100685.52
2019-03-23T07:56:49.828Z,100679.08
2019-03-23T07:59:18.530Z,100681.34
2019-03-23T08:01:46.952Z,100683.88
2019-03-23T08:04:15.367Z,100688.32
2019-03-23T08:06:43.796Z,100682.39
2019-03-23T08:09:20.041Z,100684.14
2019-03-23T08:11:42.362Z,100680.19
2019-03-23T08:14:10.766Z,100690.19
2019-03-23T08:16:39.189Z,100685.78
2019-03-23T08:19:07.597Z,100693.06
2019-03-23T08:21:35.999Z,100697.31
2019-03-23T08:24:04.426Z,100685.98
2019-03-23T08:26:32.839Z,100681.52
2019-03-23T08:29:03.215Z,100680.53
2019-03-23T08:31:31.385Z,100677.48
2019-03-23T08:33:59.805Z,100678.67
2019-03-23T08:36:28.212Z,100680.13
2019-03-23T08:38:56.623Z,100681.63
2019-03-23T08:41:25.044Z,100679.20
2019-03-23T08:43:53.449Z,100673.34
2019-03-23T08:46:21.874Z,100683.47
2019-03-23T08:48:50.284Z,100681.86
2019-03-23T08:51:18.689Z,100687.39
2019-03-23T08:53:47.105Z,100680.69
2019-03-23T08:56:15.512Z,100681.24
2019-03-23T08:58:42.784Z,100684.84
2019-03-23T09:01:11.189Z,100676.87
2019-03-23T09:03:39.585Z,100675.05
2019-03-23T09:06:08.010Z,100681.72
2019-03-23T09:08:36.429Z,100683.98
2019-03-23T09:11:04.850Z,100679.12
2019-03-23T09:13:40.566Z,100682.62
2019-03-23T09:16:03.378Z,100685.73
2019-03-23T09:18:31.797Z,100685.64
2019-03-23T09:21:00.228Z,100685.66
2019-03-23T09:23:28.629Z,100690.52
2019-03-23T09:25:57.299Z,100694.87
2019-03-23T09:28:25.729Z,100697.46
2019-03-23T09:30:54.133Z,100694.27
2019-03-23T09:33:22.535Z,100700.45
2019-03-23T09:35:50.955Z,100696.94
2019-03-23T09:38:19.356Z,100696.92
2019-03-23T09:40:47.785Z,100693.90
2019-03-23T09:43:16.261Z,100695.23
2019-03-23T09:45:44.668Z,100689.05
2019-03-23T09:48:13.096Z,100689.52
2019-03-23T09:50:41.497Z,100681.14
2019-03-23T09:53:10.266Z,100683.34
2019-03-23T09:55:38.661Z,100678.94
2019-03-23T09:58:07.075Z,100677.20
2019-03-23T10:00:35.500Z,100683.41
2019-03-23T10:03:03.959Z,100683.91
2019-03-23T10:05:32.392Z,100686.59
2019-03-23T10:08:00.804Z,100687.05
2019-03-23T10:10:29.203Z,100684.37
2019-03-23T10:12:57.645Z,100682.62
2019-03-23T10:15:26.058Z,100679.96
2019-03-23T10:17:54.488Z,100676.84
2019-03-23T10:20:22.895Z,100673.77
2019-03-23T10:22:51.292Z,100680.86
2019-03-23T10:25:19.711Z,100668.54
2019-03-23T10:27:48.109Z,100673.88
2019-03-23T10:30:16.686Z,100674.32
2019-03-23T10:32:45.089Z,100671.23
2019-03-23T10:35:13.500Z,100664.13
2019-03-23T10:37:41.913Z,100666.80
2019-03-23T10:40:11.461Z,100658.83
2019-03-23T10:42:39.928Z,100659.70
2019-03-23T10:45:09.872Z,100660.97
2019-03-23T10:47:38.477Z,100655.16
2019-03-23T10:50:07.404Z,100658.67
2019-03-23T10:52:36.169Z,100661.34
2019-03-23T10:55:06.403Z,100654.27
2019-03-23T10:57:34.816Z,100654.73
2019-03-23T11:00:04.597Z,100653.84
2019-03-23T11:02:33.011Z,100660.96
2019-03-23T11:05:01.428Z,100654.71
2019-03-23T11:07:29.913Z,100663.59
2019-03-23T11:09:58.305Z,100655.66
2019-03-23T11:12:26.709Z,100659.22
2019-03-23T11:14:55.134Z,100653.03
2019-03-23T11:17:23.528Z,100657.88
2019-03-23T11:19:51.940Z,100656.55
2019-03-23T11:22:20.611Z,100653.41
2019-03-23T11:24:49.105Z,100653.34
2019-03-23T11:27:17.868Z,100649.72
2019-03-23T11:29:46.271Z,100647.73
2019-03-23T11:32:14.686Z,100645.84
2019-03-23T11:34:43.129Z,100641.48
2019-03-23T11:37:11.642Z,100644.12
2019-03-23T11:39:40.049Z,100642.48
2019-03-23T11:42:08.453Z,100641.42
2019-03-23T11:44:36.876Z,100643.78
2019-03-23T11:47:05.353Z,100641.05
2019-03-23T11:49:34.071Z,100639.91
2019-03-23T11:52:02.492Z,100638.95
2019-03-23T11:54:30.887Z,100633.89
2019-03-23T11:56:59.309Z,100639.80
2019-03-23T11:59:27.710Z,100640.34
2019-03-23T12:01:56.138Z,100635.56
2019-03-23T12:04:25.242Z,100636.44
2019-03-23T12:06:53.815Z,100637.31
2019-03-23T12:09:22.243Z,100632.95
2019-03-23T12:11:50.648Z,100630.41
2019-03-23T12:14:19.074Z,100632.72
2019-03-23T12:16:47.473Z,100631.89
2019-03-23T12:19:15.874Z,100630.15
2019-03-23T12:21:44.299Z,100633.72
2019-03-23T12:24:12.687Z,100622.20
2019-03-23T12:26:41.097Z,100617.75
2019-03-23T12:29:09.526Z,100623.00
2019-03-23T12:31:38.535Z,100625.60
2019-03-23T12:34:06.935Z,100624.77
2019-03-23T12:36:35.358Z,100619.50
2019-03-23T12:39:04.901Z,100618.20
2019-03-23T12:41:33.306Z,100615.16
2019-03-23T12:44:01.724Z,100618.73
2019-03-23T12:46:30.150Z,100617.84
2019-03-23T12:48:58.831Z,100620.91
2019-03-23T12:51:27.226Z,100617.34
2019-03-23T12:53:55.650Z,100621.36
2019-03-23T12:56:24.047Z,100621.41
2019-03-23T12:58:52.458Z,100618.81
2019-03-23T13:01:20.889Z,100620.59
2019-03-23T13:03:49.287Z,100619.27
2019-03-23T13:06:17.691Z,100615.28
2019-03-23T13:08:46.127Z,100617.52
2019-03-23T13:11:23.092Z,100618.84
2019-03-23T13:13:44.660Z,100619.75
2019-03-23T13:16:13.094Z,100627.30
2019-03-23T13:18:41.515Z,100620.69
2019-03-23T13:21:09.922Z,100619.79
2019-03-23T13:23:38.357Z,100623.34
2019-03-23T13:26:06.765Z,100623.37
2019-03-23T13:28:35.169Z,100619.82
2019-03-23T13:31:03.610Z,100622.48
2019-03-23T13:33:32.009Z,100618.92
2019-03-23T13:36:00.418Z,100622.45
2019-03-23T13:38:28.845Z,100621.55
2019-03-23T13:40:57.242Z,100623.31
2019-03-23T13:43:25.648Z,100619.78
2019-03-23T13:45:54.064Z,100621.59
2019-03-23T13:48:22.462Z,100616.70
2019-03-23T13:50:50.885Z,100619.79
2019-03-23T13:53:19.627Z,100618.49
2019-03-23T13:55:48.053Z,100615.42
2019-03-23T13:58:16.463Z,100612.33
2019-03-23T14:00:45.022Z,100613.65
2019-03-23T14:03:13.533Z,100619.86
2019-03-23T14:05:41.902Z,100624.30
2019-03-23T14:08:10.332Z,100622.06
2019-03-23T14:10:38.801Z,100614.10
2019-03-23T14:13:07.208Z,100618.98
2019-03-23T14:15:35.692Z,100622.91
2019-03-23T14:18:04.468Z,100624.22
2019-03-23T14:20:32.872Z,100617.61
2019-03-23T14:23:02.965Z,100619.85
2019-03-23T14:25:31.437Z,100614.95
2019-03-23T14:27:59.841Z,100615.88
2019-03-23T14:30:28.268Z,100611.44
2019-03-23T14:32:56.670Z,100595.92
2019-03-23T14:35:25.073Z,100604.73
2019-03-23T14:37:53.495Z,100602.03
2019-03-23T14:40:21.904Z,100603.87
2019-03-23T14:42:50.316Z,100605.22
2019-03-23T14:45:18.736Z,100603.05
2019-03-23T14:47:47.148Z,100604.77
2019-03-23T14:50:15.650Z,100614.49
2019-03-23T14:52:44.054Z,100610.93
2019-03-23T14:55:12.993Z,100605.16
2019-03-23T14:57:41.426Z,100602.02
2019-03-23T15:00:10.469Z,100597.55
2019-03-23T15:02:38.868Z,100597.06
2019-03-23T15:05:07.823Z,100595.75
2019-03-23T15:07:36.230Z,100590.87
2019-03-23T15:10:07.670Z,100586.43
2019-03-23T15:12:36.103Z,100587.73
2019-03-23T15:15:06.237Z,100583.73
2019-03-23T15:17:34.766Z,100583.71
2019-03-23T15:20:03.942Z,100579.69
2019-03-23T15:22:32.350Z,100577.05
2019-03-23T15:25:01.038Z,100578.36
2019-03-23T15:27:29.431Z,100575.28
2019-03-23T15:29:57.940Z,100569.52
2019-03-23T15:32:26.410Z,100572.65
2019-03-23T15:34:54.813Z,100570.88
2019-03-23T15:37:23.233Z,100569.55
2019-03-23T15:39:51.630Z,100577.98
2019-03-23T15:42:24.749Z,100569.08
2019-03-23T15:44:50.389Z,100572.59
2019-03-23T15:47:18.803Z,100571.73
2019-03-23T15:49:47.229Z,100576.56
2019-03-23T15:52:15.633Z,100578.29
2019-03-23T15:54:44.058Z,100576.45
2019-03-23T15:57:12.759Z,100582.61
2019-03-23T15:59:41.166Z,100574.56
2019-03-23T16:02:09.589Z,100578.02
2019-03-23T16:04:37.999Z,100578.43
2019-03-23T16:07:06.512Z,100577.50
2019-03-23T16:09:34.922Z,100579.28
2019-03-23T16:12:03.327Z,100576.22
2019-03-23T16:14:31.743Z,100578.90
2019-03-23T16:17:00.149Z,100590.02
2019-03-23T16:19:28.588Z,100580.48
2019-03-23T16:21:56.994Z,100585.92
2019-03-23T16:24:25.406Z,100586.91
2019-03-23T16:26:53.842Z,100586.92
2019-03-23T16:29:22.252Z,100588.50
2019-03-23T16:31:50.650Z,100592.75
2019-03-23T16:34:19.091Z,100595.76
2019-03-23T16:36:47.492Z,100594.80
2019-03-23T16:39:16.217Z,100595.19
2019-03-23T16:41:44.651Z,100596.44
2019-03-23T16:44:13.054Z,100604.77
2019-03-23T16:46:41.600Z,100593.27
2019-03-23T16:49:10.010Z,100598.04
2019-03-23T16:51:38.409Z,100597.49
2019-03-23T16:54:06.839Z,100602.25
2019-03-23T16:56:35.241Z,100601.75
2019-03-23T16:59:03.663Z,100596.41
2019-03-23T17:01:32.636Z,100593.66
2019-03-23T17:04:01.050Z,100597.60
2019-03-23T17:06:29.466Z,100593.57
2019-03-23T17:08:57.869Z,100600.11
2019-03-23T17:11:26.288Z,100597.45
2019-03-23T17:13:54.700Z,100601.33
2019-03-23T17:16:23.102Z,100601.29
2019-03-23T17:18:51.528Z,100601.23
2019-03-23T17:21:20.297Z,100601.62
2019-03-23T17:23:48.752Z,100614.24
2019-03-23T17:26:17.641Z,100622.02
2019-03-23T17:28:46.044Z,100613.10
2019-03-23T17:31:14.461Z,100619.64
2019-03-23T17:33:42.881Z,100624.88
2019-03-23T17:36:11.357Z,100622.58
2019-03-23T17:38:39.765Z,100621.64
2019-03-23T17:41:10.211Z,100626.42
2019-03-23T17:43:40.715Z,100625.80
2019-03-23T17:46:08.457Z,100628.36
2019-03-23T17:48:37.152Z,100649.83
2019-03-23T17:51:06.992Z,100643.00
2019-03-23T17:53:35.726Z,100650.38
2019-03-23T17:56:06.344Z,100650.63
2019-03-23T17:58:34.273Z,100653.44
2019-03-23T18:01:03.118Z,100658.84
2019-03-23T18:03:31.537Z,100662.16
2019-03-23T18:06:00.330Z,100660.16
2019-03-23T18:08:28.734Z,100665.19
2019-03-23T18:10:57.150Z,100666.33
2019-03-23T18:13:25.641Z,100670.52
2019-03-23T18:15:54.046Z,100675.34
2019-03-23T18:18:22.470Z,100677.83
2019-03-23T18:20:50.872Z,100678.65
2019-03-23T18:23:19.456Z,100690.33
2019-03-23T18:25:47.885Z,100687.13
2019-03-23T18:28:16.330Z,100694.87
2019-03-23T18:30:46.312Z,100689.07
2019-03-23T18:33:14.729Z,100693.28
2019-03-23T18:35:43.402Z,100698.05
2019-03-23T18:38:11.820Z,100706.78
2019-03-23T18:40:40.308Z,100700.56
2019-03-23T18:43:09.006Z,100710.65
2019-03-23T18:45:37.543Z,100710.97
2019-03-23T18:48:06.003Z,100712.21
2019-03-23T18:50:34.448Z,100711.67
2019-03-23T18:53:02.838Z,100711.67
2019-03-23T18:55:31.236Z,100716.61
2019-03-23T18:57:59.655Z,100713.36
2019-03-23T19:00:43.662Z,100715.86
2019-03-23T19:03:12.693Z,100716.64
2019-03-23T19:05:41.099Z,100714.38
2019-03-23T19:08:11.809Z,100711.52
2019-03-23T19:10:39.704Z,100709.17
2019-03-23T19:13:08.173Z,100706.49
2019-03-23T19:15:36.744Z,100707.27
2019-03-23T19:18:05.966Z,100704.87
2019-03-23T19:20:34.339Z,100705.05
2019-03-23T19:23:02.804Z,100702.33
2019-03-23T19:25:31.385Z,100703.91
2019-03-23T19:27:59.785Z,100706.36
2019-03-23T19:30:28.177Z,100709.56
2019-03-23T19:32:56.649Z,100705.34
2019-03-23T19:35:25.304Z,100706.31
2019-03-23T19:37:53.716Z,100712.05
2019-03-23T19:40:22.422Z,100710.01
2019-03-23T19:42:50.817Z,100717.55
2019-03-23T19:45:19.240Z,100707.08
2019-03-23T19:47:47.660Z,100709.53
2019-03-23T19:50:16.991Z,100702.14
2019-03-23T19:52:45.392Z,100709.34
2019-03-23T19:55:13.781Z,100717.28
2019-03-23T19:57:42.272Z,100718.28
2019-03-23T20:00:11.809Z,100719.92
2019-03-23T20:02:40.292Z,100721.54
2019-03-23T20:05:08.934Z,100721.47
2019-03-23T20:07:37.317Z,100717.42
2019-03-23T20:10:08.164Z,100716.84
2019-03-23T20:12:36.742Z,100714.46
2019-03-23T20:15:10.689Z,100716.45
2019-03-23T20:17:39.093Z,100718.04
2019-03-23T20:20:08.637Z,100717.41
2019-03-23T20:22:37.123Z,100715.52
2019-03-23T20:25:06.864Z,100718.53
2019-03-23T20:27:35.257Z,100717.45
2019-03-23T20:30:05.546Z,100710.31
2019-03-23T20:32:33.937Z,100708.31
2019-03-23T20:35:02.358Z,100708.47
2019-03-23T20:37:30.757Z,100709.52
2019-03-23T20:39:59.161Z,100707.06
2019-03-23T20:42:27.578Z,100700.20
2019-03-23T20:44:55.976Z,100701.70
2019-03-23T20:47:24.467Z,100701.91
2019-03-23T20:49:53.604Z,100695.52
2019-03-23T20:52:22.036Z,100694.18
2019-03-23T20:54:50.440Z,100698.31
2019-03-23T20:57:23.847Z,100698.31
2019-03-23T20:59:48.991Z,100695.58
2019-03-23T21:02:17.393Z,100689.75
2019-03-23T21:04:45.794Z,100686.42
2019-03-23T21:07:14.210Z,100691.67
2019-03-23T21:09:42.876Z,100690.64
2019-03-23T21:12:11.299Z,100687.49
2019-03-23T21:14:39.699Z,100688.45
2019-03-23T21:17:08.132Z,100687.86
2019-03-23T21:19:36.554Z,100689.91
2019-03-23T21:22:05.125Z,100697.73
2019-03-23T21:24:33.541Z,100696.56
2019-03-23T21:27:01.960Z,100691.09
2019-03-23T21:29:30.342Z,100689.95
2019-03-23T21:31:58.765Z,100681.41
2019-03-23T21:34:27.163Z,100681.41
2019-03-23T21:36:55.850Z,100685.52
2019-03-23T21:39:24.250Z,100681.74
2019-03-23T21:41:52.926Z,100676.48
2019-03-23T21:44:30.646Z,100671.42
2019-03-23T21:46:51.471Z,100674.21
2019-03-23T21:49:19.901Z,100671.09
2019-03-23T21:51:48.298Z,100666.36
2019-03-23T21:54:16.725Z,100671.46
2019-03-23T21:56:45.133Z,100668.24
2019-03-23T21:59:13.538Z,100675.69
2019-03-23T22:01:42.240Z,100674.33
2019-03-23T22:04:10.649Z,100666.95
2019-03-23T22:06:39.038Z,100670.40
2019-03-23T22:09:07.882Z,100668.95
2019-03-23T22:11:36.285Z,100667.03
2019-03-23T22:14:04.684Z,100664.22
2019-03-23T22:16:33.108Z,100668.46
2019-03-23T22:19:01.511Z,100665.17
2019-03-23T22:21:29.925Z,100666.70
2019-03-23T22:23:58.331Z,100662.31
2019-03-23T22:26:26.752Z,100665.00
2019-03-23T22:28:55.149Z,100658.11
2019-03-23T22:31:23.545Z,100663.27
2019-03-23T22:33:51.961Z,100663.34
2019-03-23T22:36:20.360Z,100665.77
2019-03-23T22:38:49.091Z,100661.95
2019-03-23T22:41:17.494Z,100652.74
2019-03-23T22:43:45.890Z,100656.48
2019-03-23T22:46:14.310Z,100654.13
2019-03-23T22:48:42.705Z,100656.01
2019-03-23T22:51:11.123Z,100661.16
2019-03-23T22:53:39.522Z,100655.86
2019-03-23T22:56:07.946Z,100655.56
2019-03-23T22:58:36.627Z,100643.75
2019-03-23T23:01:05.306Z,100643.27
2019-03-23T23:03:33.706Z,100648.10
2019-03-23T23:06:02.202Z,100642.04
2019-03-23T23:08:30.596Z,100644.22
2019-03-23T23:10:59.031Z,100640.95
2019-03-23T23:13:27.434Z,100629.81
2019-03-23T23:15:55.838Z,100629.12
2019-03-23T23:18:24.512Z,100634.90
2019-03-23T23:20:52.910Z,100625.68
2019-03-23T23:23:21.312Z,100629.99
2019-03-23T23:25:49.723Z,100621.28
2019-03-23T23:28:18.400Z,100625.73
2019-03-23T23:30:46.800Z,100621.52
2019-03-23T23:33:15.229Z,100619.98
2019-03-23T23:35:43.615Z,100612.44
2019-03-23T23:38:12.046Z,100614.74
2019-03-23T23:40:40.728Z,100609.11
2019-03-23T23:43:09.125Z,100607.75
2019-03-23T23:45:37.564Z,100605.93
2019-03-23T23:48:06.029Z,100601.33
2019-03-23T23:50:34.369Z,100609.09
2019-03-23T23:53:02.801Z,100601.62
2019-03-23T23:55:31.197Z,100597.08
2019-03-23T23:57:59.615Z,100597.77
